Time;durP1;ratioP1;P1;durP2;ratioP2;P2;SDS_P1;SDS_P2;PMS_P1;PMS_P2;Temp;Humidity;BMP_temperature;BMP_pressure;BME280_temperature;BME280_humidity;BME280_pressure;Samples;Min_cycle;Max_cycle;Signal;HPM_P1;HPM_P2
2022/03/27 00:00:48;;;;;;;2.67;2.10;;;18.90;46.40;17.90;102815.00;;;;5061232;28;20107;-69
2022/03/27 00:03:34;;;;;;;3.00;2.10;;;18.80;46.40;17.90;102819.00;;;;5056634;28;20044;-70
2022/03/27 00:06:20;;;;;;;3.90;2.10;;;18.90;46.50;17.90;102823.00;;;;5046662;28;20037;-69
2022/03/27 00:09:06;;;;;;;4.63;2.53;;;18.80;46.40;17.90;102823.00;;;;5054659;28;20072;-70
2022/03/27 00:11:52;;;;;;;3.40;2.28;;;18.80;46.40;17.90;102820.00;;;;5055108;28;20482;-69
2022/03/27 00:14:38;;;;;;;3.22;2.08;;;18.80;46.40;17.90;102816.00;;;;5054545;28;20120;-69
2022/03/27 00:17:29;;;;;;;4.18;2.50;;;18.80;46.50;17.90;102814.00;;;;5053932;28;20044;-69
2022/03/27 00:20:15;;;;;;;2.92;2.08;;;18.80;46.50;18.00;102814.00;;;;5041869;28;20049;-69
2022/03/27 00:23:01;;;;;;;2.70;1.73;;;18.90;46.60;18.00;102810.00;;;;5057605;28;20045;-69
2022/03/27 00:25:50;;;;;;;2.33;1.98;;;18.90;46.60;17.90;102810.00;;;;5057009;28;20382;-69
2022/03/27 00:28:36;;;;;;;2.47;2.15;;;18.90;46.60;18.00;102815.00;;;;5056630;28;20110;-70
2022/03/27 00:31:22;;;;;;;4.35;2.10;;;18.90;46.70;17.90;102808.00;;;;5048340;28;20049;-69
2022/03/27 00:34:09;;;;;;;4.35;2.58;;;18.90;46.70;18.00;102815.00;;;;5058182;28;20045;-69
2022/03/27 00:36:55;;;;;;;2.20;2.00;;;18.90;46.70;17.90;102814.00;;;;5051387;28;20049;-69
2022/03/27 00:39:41;;;;;;;2.63;2.13;;;18.90;46.70;18.00;102803.00;;;;5056085;28;20454;-69
2022/03/27 00:42:27;;;;;;;3.00;2.05;;;18.90;46.70;18.00;102820.00;;;;5065600;28;20081;-69
2022/03/27 00:45:14;;;;;;;1.77;1.63;;;18.90;46.70;18.00;102816.00;;;;5065218;28;20036;-69
2022/03/27 00:48:00;;;;;;;3.30;2.00;;;18.90;46.60;18.00;102813.00;;;;5041116;28;20040;-69
2022/03/27 00:50:47;;;;;;;2.40;1.60;;;18.90;46.60;17.90;102812.00;;;;5039698;28;20419;-69
2022/03/27 00:53:33;;;;;;;2.22;1.88;;;18.90;46.60;17.90;102818.00;;;;5060166;28;20547;-70
2022/03/27 00:56:19;;;;;;;2.83;1.60;;;18.90;46.60;17.90;102812.00;;;;5065653;28;20068;-70
2022/03/27 00:59:05;;;;;;;2.50;1.95;;;18.90;46.60;17.90;102810.00;;;;5059556;28;20544;-69
2022/03/27 01:01:51;;;;;;;2.40;2.00;;;18.90;46.60;17.90;102811.00;;;;5061466;28;20037;-70
2022/03/27 01:04:43;;;;;;;1.92;1.70;;;18.90;46.60;17.90;102808.00;;;;5041050;28;20386;-69
2022/03/27 01:07:29;;;;;;;2.22;1.80;;;18.80;46.50;17.90;102806.00;;;;5050374;28;20044;-70
2022/03/27 01:10:15;;;;;;;2.47;1.77;;;18.90;46.50;17.90;102808.00;;;;5062466;28;20056;-69
2022/03/27 01:13:19;;;;;;;3.15;1.90;;;18.80;46.40;17.90;102812.00;;;;5061713;28;20036;-70
2022/03/27 01:16:05;;;;;;;1.77;1.58;;;18.80;46.50;17.90;102801.00;;;;5050539;28;20154;-70
2022/03/27 01:18:51;;;;;;;2.10;1.90;;;18.80;46.50;17.90;102802.00;;;;5059441;28;20414;-70
2022/03/27 01:21:44;;;;;;;1.95;1.77;;;18.70;46.40;17.90;102797.00;;;;5059128;28;20039;-69
2022/03/27 01:24:30;;;;;;;2.63;1.90;;;18.80;46.50;17.90;102795.00;;;;5055830;28;20032;-70
2022/03/27 01:27:17;;;;;;;2.45;1.73;;;18.80;46.40;17.90;102799.00;;;;5062904;28;20482;-70
2022/03/27 01:30:03;;;;;;;2.72;1.85;;;18.80;46.40;17.90;102796.00;;;;5043221;28;20119;-70
2022/03/27 01:32:51;;;;;;;2.05;1.83;;;18.80;46.50;17.90;102787.00;;;;5062344;28;20045;-69
2022/03/27 01:35:37;;;;;;;3.40;1.88;;;18.70;46.40;17.90;102792.00;;;;5063715;28;20044;-70
2022/03/27 01:38:23;;;;;;;2.65;1.80;;;18.80;46.40;17.80;102791.00;;;;5063058;28;20407;-69
2022/03/27 01:41:09;;;;;;;2.55;2.10;;;18.80;46.40;17.90;102788.00;;;;5061754;28;20052;-70
2022/03/27 01:43:56;;;;;;;2.40;1.88;;;18.70;46.40;17.80;102785.00;;;;5057707;28;20044;-69
2022/03/27 01:46:42;;;;;;;3.40;2.00;;;18.70;46.40;17.80;102783.00;;;;5046897;28;20036;-70
2022/03/27 01:49:29;;;;;;;1.98;1.75;;;18.70;46.50;17.80;102781.00;;;;5056299;28;20506;-69
2022/03/27 01:52:15;;;;;;;2.17;1.80;;;18.70;46.50;17.80;102786.00;;;;5062436;28;20570;-70
2022/03/27 01:55:01;;;;;;;2.00;1.75;;;18.70;46.40;17.80;102785.00;;;;5057653;28;20041;-70
2022/03/27 01:57:47;;;;;;;2.13;1.70;;;18.70;46.40;17.80;102777.00;;;;5060077;28;20040;-69
2022/03/27 02:00:33;;;;;;;2.28;2.08;;;18.70;46.40;17.80;102781.00;;;;5061219;28;20406;-70
2022/03/27 02:03:20;;;;;;;2.90;2.00;;;18.70;46.40;17.80;102785.00;;;;5057377;28;20030;-69
2022/03/27 02:06:06;;;;;;;1.60;1.42;;;18.70;46.40;17.80;102789.00;;;;5058081;28;20037;-70
2022/03/27 02:08:52;;;;;;;3.88;2.00;;;18.70;46.40;17.80;102795.00;;;;5046546;28;20090;-69
2022/03/27 02:11:41;;;;;;;2.22;1.75;;;18.70;46.40;17.80;102787.00;;;;5062270;28;20468;-70
2022/03/27 02:14:27;;;;;;;2.45;1.70;;;18.70;46.40;17.80;102785.00;;;;5061283;28;20506;-69
2022/03/27 02:17:13;;;;;;;4.75;2.30;;;18.60;46.40;17.70;102787.00;;;;5061646;28;20044;-70
2022/03/27 02:20:00;;;;;;;1.80;1.60;;;18.60;46.40;17.70;102786.00;;;;5059210;28;20033;-70
2022/03/27 02:22:48;;;;;;;2.00;1.52;;;18.70;46.50;17.70;102783.00;;;;5059526;28;20051;-70
2022/03/27 02:25:34;;;;;;;2.38;1.90;;;18.60;46.40;17.70;102788.00;;;;5059463;28;20461;-69
2022/03/27 02:28:20;;;;;;;2.10;1.85;;;18.60;46.40;17.70;102786.00;;;;5059488;28;20036;-69
2022/03/27 02:31:08;;;;;;;1.98;1.65;;;18.60;46.40;17.60;102790.00;;;;5065211;28;20098;-69
2022/03/27 02:33:54;;;;;;;1.83;1.58;;;18.60;46.30;17.70;102793.00;;;;5056236;28;20075;-70
2022/03/27 02:36:41;;;;;;;2.33;2.13;;;18.60;46.40;17.70;102790.00;;;;5057155;28;20036;-69
2022/03/27 02:39:27;;;;;;;2.85;2.55;;;18.60;46.30;17.70;102793.00;;;;5059792;28;20048;-70
2022/03/27 02:42:13;;;;;;;3.25;1.70;;;18.60;46.40;17.70;102793.00;;;;5063729;28;20465;-70
2022/03/27 02:44:59;;;;;;;2.65;1.70;;;18.50;46.30;17.70;102796.00;;;;5060584;28;20039;-70
2022/03/27 02:47:45;;;;;;;2.55;1.73;;;18.50;46.30;17.70;102797.00;;;;5066091;28;20036;-70
2022/03/27 02:50:31;;;;;;;1.90;1.55;;;18.50;46.30;17.70;102798.00;;;;5057657;28;20041;-70
2022/03/27 02:53:18;;;;;;;2.10;1.73;;;18.50;46.30;17.70;102796.00;;;;5062282;28;20076;-69
2022/03/27 02:56:05;;;;;;;4.38;1.90;;;18.50;46.30;17.70;102798.00;;;;5058113;28;20049;-70
2022/03/27 02:58:51;;;;;;;3.03;2.38;;;18.50;46.30;17.70;102791.00;;;;5065723;28;20498;-70
2022/03/27 03:01:37;;;;;;;2.30;1.80;;;18.50;46.20;17.70;102803.00;;;;5066761;28;20071;-70
2022/03/27 03:04:23;;;;;;;1.92;1.70;;;18.50;46.30;17.70;102796.00;;;;5059471;28;20040;-70
2022/03/27 03:07:09;;;;;;;1.85;1.75;;;18.50;46.20;17.70;102798.00;;;;5059699;28;20041;-69
2022/03/27 03:09:56;;;;;;;2.92;2.05;;;18.60;46.40;17.70;102802.00;;;;5056669;28;20501;-69
2022/03/27 03:12:42;;;;;;;2.60;2.10;;;18.50;46.30;17.70;102797.00;;;;5060544;28;20044;-69
2022/03/27 03:15:31;;;;;;;3.03;1.98;;;18.50;46.30;17.70;102797.00;;;;5035930;28;20044;-69
2022/03/27 03:18:17;;;;;;;2.30;1.83;;;18.50;46.30;17.70;102796.00;;;;5064226;28;20053;-70
2022/03/27 03:21:03;;;;;;;3.28;1.92;;;18.50;46.20;17.70;102804.00;;;;5052470;28;20410;-69
2022/03/27 03:23:49;;;;;;;2.55;1.75;;;18.50;46.30;17.70;102799.00;;;;5044838;28;20102;-69
2022/03/27 03:26:35;;;;;;;2.33;2.00;;;18.60;46.30;17.70;102801.00;;;;5072186;28;20043;-70
2022/03/27 03:29:21;;;;;;;4.13;2.20;;;18.50;46.30;17.70;102802.00;;;;5057015;28;20040;-70
2022/03/27 03:32:08;;;;;;;3.10;2.38;;;18.60;46.30;17.70;102791.00;;;;5036264;28;20049;-69
2022/03/27 03:34:54;;;;;;;2.53;2.00;;;18.50;46.30;17.70;102802.00;;;;5061540;28;20032;-70
2022/03/27 03:37:40;;;;;;;3.75;2.00;;;18.60;46.30;17.70;102797.00;;;;5061431;28;20046;-70
2022/03/27 03:40:26;;;;;;;2.78;1.70;;;18.50;46.30;17.70;102807.00;;;;5069097;28;20048;-69
2022/03/27 03:43:13;;;;;;;2.20;1.75;;;18.50;46.30;17.70;102806.00;;;;5057372;28;20047;-69
2022/03/27 03:45:59;;;;;;;3.65;1.80;;;18.50;46.20;17.70;102803.00;;;;5064664;28;20453;-70
2022/03/27 03:48:45;;;;;;;2.90;2.00;;;18.50;46.20;17.70;102806.00;;;;5061513;28;20122;-70
2022/03/27 03:51:31;;;;;;;1.77;1.55;;;18.50;46.20;17.70;102809.00;;;;5060765;28;20087;-70
2022/03/27 03:54:17;;;;;;;2.15;1.60;;;18.50;46.20;17.70;102804.00;;;;5057987;28;20152;-70
2022/03/27 03:57:04;;;;;;;1.52;1.42;;;18.50;46.20;17.70;102803.00;;;;5065426;28;20401;-70
2022/03/27 03:59:50;;;;;;;2.20;2.00;;;18.60;46.30;17.60;102800.00;;;;5044605;28;20048;-70
2022/03/27 04:02:36;;;;;;;2.17;1.90;;;18.60;46.20;17.60;102801.00;;;;5077060;28;20297;-69
2022/03/27 04:05:22;;;;;;;2.15;1.45;;;18.50;46.20;17.60;102795.00;;;;5060991;28;20045;-69
2022/03/27 04:08:08;;;;;;;2.00;1.80;;;18.50;46.20;17.60;102798.00;;;;5071771;28;20478;-69
2022/03/27 04:10:54;;;;;;;3.08;2.17;;;18.50;46.20;17.60;102798.00;;;;5053926;28;20051;-70
2022/03/27 04:13:40;;;;;;;2.25;1.90;;;18.50;46.20;17.60;102794.00;;;;5057472;28;20210;-69
2022/03/27 04:16:28;;;;;;;2.47;1.90;;;18.50;46.20;17.60;102798.00;;;;5068594;28;20052;-69
2022/03/27 04:19:14;;;;;;;2.80;2.17;;;18.50;46.90;17.60;102800.00;;;;5056189;28;20045;-69
2022/03/27 04:22:00;;;;;;;2.67;2.13;;;18.50;46.20;17.60;102797.00;;;;5063656;28;20076;-69
2022/03/27 04:24:46;;;;;;;2.13;1.70;;;18.50;46.10;17.60;102792.00;;;;5053486;28;20536;-70
2022/03/27 04:27:33;;;;;;;2.95;2.10;;;18.40;46.10;17.60;102790.00;;;;5062729;28;20040;-69
2022/03/27 04:30:20;;;;;;;3.08;1.90;;;18.50;46.20;17.60;102798.00;;;;5042542;28;20477;-70
2022/03/27 04:33:08;;;;;;;2.35;2.05;;;18.50;46.20;17.60;102798.00;;;;5063890;28;20041;-69
2022/03/27 04:35:54;;;;;;;2.15;1.95;;;18.50;46.20;17.60;102793.00;;;;5048178;28;20043;-70
2022/03/27 04:38:40;;;;;;;3.15;2.05;;;18.50;46.20;17.60;102789.00;;;;5054462;28;20041;-69
2022/03/27 04:41:26;;;;;;;2.20;1.90;;;18.50;46.90;17.60;102787.00;;;;5065602;28;20044;-69
2022/03/27 04:44:12;;;;;;;2.15;1.95;;;18.50;46.10;17.60;102790.00;;;;5040675;28;20041;-70
2022/03/27 04:46:58;;;;;;;2.70;1.83;;;18.40;46.20;17.60;102787.00;;;;5046904;28;20043;-69
2022/03/27 04:49:44;;;;;;;3.05;1.95;;;18.50;46.20;17.60;102785.00;;;;5059037;28;20090;-70
2022/03/27 04:52:30;;;;;;;2.80;2.05;;;18.40;46.10;17.60;102795.00;;;;5056954;28;20041;-70
2022/03/27 04:55:16;;;;;;;3.03;1.75;;;18.40;46.20;17.60;102787.00;;;;5056368;28;20079;-70
2022/03/27 04:58:03;;;;;;;3.28;2.47;;;18.40;46.20;17.60;102789.00;;;;5061179;28;20054;-69
2022/03/27 05:00:49;;;;;;;2.95;2.05;;;18.40;46.20;17.60;102792.00;;;;5041645;28;20040;-69
2022/03/27 05:03:35;;;;;;;2.60;1.85;;;18.40;46.20;17.50;102796.00;;;;5037813;28;20175;-70
2022/03/27 05:06:21;;;;;;;2.45;2.00;;;18.40;46.20;17.50;102799.00;;;;5054158;28;20033;-70
2022/03/27 05:09:07;;;;;;;3.88;1.98;;;18.40;46.20;17.50;102791.00;;;;5060016;28;20053;-69
2022/03/27 05:11:55;;;;;;;2.92;2.13;;;18.40;46.10;17.50;102807.00;;;;5055170;28;20397;-70
2022/03/27 05:14:41;;;;;;;2.88;2.22;;;18.40;46.20;17.50;102802.00;;;;5058728;28;20037;-70
2022/03/27 05:17:30;;;;;;;2.28;1.80;;;18.40;46.20;17.50;102804.00;;;;5061700;28;20059;-70
2022/03/27 05:20:16;;;;;;;2.90;2.20;;;18.40;46.10;17.50;102809.00;;;;5039941;28;20040;-69
2022/03/27 05:23:02;;;;;;;3.92;2.28;;;18.40;46.10;17.50;102812.00;;;;5064305;28;20088;-69
2022/03/27 05:25:50;;;;;;;3.75;2.20;;;18.40;46.10;17.50;102804.00;;;;5052822;28;20104;-69
2022/03/27 05:28:36;;;;;;;2.80;2.10;;;18.40;46.10;17.50;102809.00;;;;5060385;28;20040;-70
2022/03/27 05:31:22;;;;;;;2.45;2.15;;;18.40;46.10;17.50;102809.00;;;;5058428;28;20049;-69
2022/03/27 05:34:08;;;;;;;2.75;1.98;;;18.40;46.10;17.50;102805.00;;;;5043111;28;20052;-70
2022/03/27 05:36:55;;;;;;;2.63;2.15;;;18.40;46.10;17.50;102804.00;;;;5058385;28;20238;-69
2022/03/27 05:39:41;;;;;;;3.80;2.58;;;18.40;46.10;17.50;102809.00;;;;5054556;28;20053;-69
2022/03/27 05:42:27;;;;;;;2.65;2.25;;;18.40;46.10;17.50;102809.00;;;;5061358;28;20052;-69
2022/03/27 05:45:13;;;;;;;3.47;2.65;;;18.40;46.80;17.50;102809.00;;;;5062486;28;20457;-70
2022/03/27 05:48:00;;;;;;;3.30;2.20;;;18.40;46.10;17.50;102812.00;;;;5045797;28;20163;-70
2022/03/27 05:50:46;;;;;;;3.67;2.50;;;18.40;46.10;17.50;102809.00;;;;5061777;28;20044;-70
2022/03/27 05:53:32;;;;;;;2.75;2.20;;;18.30;46.00;17.50;102806.00;;;;5067114;28;20040;-70
2022/03/27 05:56:18;;;;;;;2.67;2.08;;;18.30;46.10;17.50;102808.00;;;;5060031;28;20461;-70
2022/03/27 05:59:05;;;;;;;5.53;2.80;;;18.30;46.00;17.50;102811.00;;;;5044776;28;20075;-70
2022/03/27 06:01:51;;;;;;;3.20;2.53;;;18.30;46.00;17.50;102815.00;;;;5071956;28;20041;-70
2022/03/27 06:04:38;;;;;;;2.83;2.28;;;18.30;45.90;17.50;102817.00;;;;5058784;28;20658;-70
2022/03/27 06:07:24;;;;;;;3.45;2.70;;;18.30;46.00;17.50;102819.00;;;;5061980;28;20702;-69
2022/03/27 06:10:11;;;;;;;3.42;2.65;;;18.30;46.00;17.40;102816.00;;;;5058721;28;20053;-69
2022/03/27 06:13:00;;;;;;;3.13;2.55;;;18.30;46.00;17.40;102817.00;;;;5056378;28;20050;-70
2022/03/27 06:15:51;;;;;;;3.05;2.25;;;18.30;46.00;17.40;102814.00;;;;5030092;28;20049;-70
2022/03/27 06:18:37;;;;;;;3.40;2.65;;;18.30;46.00;17.40;102817.00;;;;5059007;28;20483;-70
2022/03/27 06:21:23;;;;;;;3.85;2.92;;;18.30;45.90;17.40;102813.00;;;;5066545;28;20043;-70
2022/03/27 06:24:09;;;;;;;3.05;2.58;;;18.30;45.90;17.40;102819.00;;;;5056155;28;20033;-70
2022/03/27 06:26:55;;;;;;;3.13;2.35;;;18.40;45.90;17.40;102814.00;;;;5042383;28;20047;-70
2022/03/27 06:29:41;;;;;;;2.78;2.33;;;18.30;45.90;17.40;102813.00;;;;5063086;28;20044;-69
2022/03/27 06:32:27;;;;;;;3.75;2.42;;;18.30;45.90;17.40;102818.00;;;;5066588;28;20398;-69
2022/03/27 06:35:17;;;;;;;3.35;2.85;;;18.30;45.80;17.40;102814.00;;;;5057980;28;20110;-70
2022/03/27 06:38:03;;;;;;;3.38;2.47;;;18.30;45.80;17.40;102824.00;;;;5059620;28;20055;-70
2022/03/27 06:40:49;;;;;;;2.53;2.30;;;18.30;45.90;17.40;102826.00;;;;5061275;28;20391;-69
2022/03/27 06:43:37;;;;;;;2.88;2.53;;;18.20;45.80;17.40;102823.00;;;;5065207;28;20048;-69
2022/03/27 06:46:23;;;;;;;4.78;2.60;;;18.30;45.80;17.40;102828.00;;;;5062036;28;20353;-69
2022/03/27 06:49:09;;;;;;;4.00;2.90;;;18.30;45.80;17.40;102829.00;;;;5060789;28;20056;-70
2022/03/27 06:51:55;;;;;;;3.97;2.78;;;18.20;45.80;17.40;102828.00;;;;5065509;28;20117;-70
2022/03/27 06:54:42;;;;;;;3.65;2.60;;;18.30;45.80;17.40;102833.00;;;;5058862;28;20048;-69
2022/03/27 06:57:29;;;;;;;3.63;2.72;;;18.20;45.80;17.40;102827.00;;;;5053183;28;20429;-70
2022/03/27 07:03:23;;;;;;;4.55;2.95;;;18.20;45.80;17.40;102835.00;;;;5063450;28;20344;-70
2022/03/27 07:06:10;;;;;;;3.22;2.67;;;18.20;45.80;17.40;102837.00;;;;5065360;28;20059;-70
2022/03/27 07:08:56;;;;;;;3.58;2.78;;;18.20;45.80;17.40;102844.00;;;;5047955;28;20049;-69
2022/03/27 07:11:44;;;;;;;3.90;2.75;;;18.20;45.80;17.40;102842.00;;;;5058257;28;20098;-69
2022/03/27 07:14:30;;;;;;;3.92;2.55;;;18.20;45.80;17.40;102851.00;;;;5065109;28;20376;-69
2022/03/27 07:17:17;;;;;;;3.38;2.83;;;18.20;45.90;17.40;102847.00;;;;5066803;28;20048;-70
2022/03/27 07:20:07;;;;;;;3.67;3.03;;;18.20;45.80;17.30;102845.00;;;;5052683;28;20056;-69
2022/03/27 07:22:55;;;;;;;3.78;2.75;;;18.20;45.80;17.30;102843.00;;;;5045423;28;20029;-70
2022/03/27 07:25:43;;;;;;;3.28;2.60;;;18.20;45.80;17.30;102849.00;;;;5061180;28;20036;-70
2022/03/27 07:28:31;;;;;;;2.60;2.40;;;18.20;45.80;17.30;102842.00;;;;5045763;28;20036;-69
2022/03/27 07:31:17;;;;;;;3.05;2.60;;;18.20;45.80;17.30;102847.00;;;;5067751;28;20044;-69
2022/03/27 07:34:04;;;;;;;4.00;2.85;;;18.20;45.80;17.30;102855.00;;;;5060459;28;20055;-70
2022/03/27 07:36:50;;;;;;;3.50;2.72;;;18.20;45.80;17.40;102868.00;;;;5054385;28;20778;-70
2022/03/27 07:39:36;;;;;;;3.38;2.53;;;18.20;45.80;17.40;102862.00;;;;5051509;28;20032;-69
2022/03/27 07:42:22;;;;;;;3.80;2.67;;;18.20;45.80;17.30;102864.00;;;;5054689;28;20124;-69
2022/03/27 07:45:09;;;;;;;3.92;3.10;;;18.20;45.80;17.30;102859.00;;;;5057315;28;20041;-70
2022/03/27 07:47:56;;;;;;;3.38;2.53;;;18.20;45.80;17.40;102847.00;;;;5049432;28;20119;-69
2022/03/27 07:50:42;;;;;;;4.18;2.75;;;18.20;45.60;17.40;102852.00;;;;5045746;28;20055;-69
2022/03/27 07:53:28;;;;;;;3.58;2.80;;;18.20;45.70;17.40;102857.00;;;;5055361;28;20051;-70
2022/03/27 07:56:14;;;;;;;9.88;3.72;;;18.20;45.80;17.40;102857.00;;;;5057696;28;20048;-70
2022/03/27 07:59:00;;;;;;;17.13;5.65;;;18.20;45.40;17.30;102839.00;;;;5054542;28;20041;-69
2022/03/27 08:01:46;;;;;;;12.23;4.45;;;18.20;45.20;17.30;102850.00;;;;5054712;28;20042;-69
2022/03/27 08:04:34;;;;;;;13.35;5.18;;;18.20;45.40;17.30;102862.00;;;;5058858;28;20056;-69
2022/03/27 08:07:20;;;;;;;;;;;18.20;45.30;17.20;102859.00;;;;5063208;28;20041;-69
2022/03/27 08:10:07;;;;;;;10.27;4.90;;;18.20;45.30;17.20;102859.00;;;;5055996;28;19916;-69
2022/03/27 08:12:53;;;;;;;14.82;5.43;;;18.20;44.90;17.20;102856.00;;;;5055055;28;20037;-69
2022/03/27 08:15:39;;;;;;;9.73;5.13;;;18.20;44.90;17.10;102859.00;;;;5061806;28;20401;-69
2022/03/27 08:18:25;;;;;;;6.72;4.88;;;18.20;44.50;17.10;102859.00;;;;5061203;28;20103;-69
2022/03/27 08:21:12;;;;;;;10.75;6.32;;;18.10;44.40;17.00;102854.00;;;;5058863;28;20469;-69
2022/03/27 08:23:58;;;;;;;10.93;6.35;;;18.00;44.20;17.00;102857.00;;;;5045757;28;20094;-69
2022/03/27 08:26:56;;;;;;;12.23;6.95;;;18.00;43.90;17.00;102862.00;;;;5059280;28;20036;-70
2022/03/27 08:29:42;;;;;;;7.82;6.13;;;18.00;43.70;16.90;102854.00;;;;5061471;28;20044;-69
2022/03/27 08:32:28;;;;;;;9.30;6.30;;;18.00;43.90;16.90;102860.00;;;;5047884;28;20056;-70
2022/03/27 08:35:14;;;;;;;10.43;6.30;;;17.90;43.20;16.80;102855.00;;;;5051745;28;20045;-69
2022/03/27 08:38:00;;;;;;;9.93;6.50;;;17.90;44.00;16.70;102858.00;;;;5052365;28;20053;-69
2022/03/27 08:40:47;;;;;;;10.77;5.85;;;17.80;44.10;16.70;102847.00;;;;5058240;28;20060;-69
2022/03/27 08:43:33;;;;;;;9.07;6.25;;;17.70;44.20;16.70;102857.00;;;;5059983;28;20033;-70
2022/03/27 08:46:19;;;;;;;12.13;6.97;;;17.70;44.20;16.70;102865.00;;;;5057298;28;20052;-71
2022/03/27 08:49:33;;;;;;;12.10;6.78;;;17.70;43.70;16.60;102855.00;;;;5062762;28;20048;-71
2022/03/27 08:52:23;;;;;;;9.32;6.10;;;17.70;43.70;16.60;102860.00;;;;5062676;28;20048;-71
2022/03/27 08:55:22;;;;;;;8.88;6.55;;;17.60;44.10;16.60;102859.00;;;;5054064;28;20122;-71
2022/03/27 08:58:10;;;;;;;9.55;6.45;;;17.60;44.30;16.60;102867.00;;;;5040857;28;20048;-71
2022/03/27 09:00:56;;;;;;;8.98;7.07;;;17.60;44.40;16.60;102858.00;;;;5044700;28;20371;-70
2022/03/27 09:03:42;;;;;;;10.23;6.25;;;17.50;44.10;16.60;102859.00;;;;5055491;28;20036;-78
2022/03/27 09:06:28;;;;;;;8.20;5.95;;;17.50;44.70;16.60;102849.00;;;;5063216;28;20597;-69
2022/03/27 09:09:14;;;;;;;7.68;5.43;;;17.50;44.30;16.60;102857.00;;;;5072086;28;20043;-69
2022/03/27 09:12:03;;;;;;;6.72;5.70;;;17.50;44.40;16.70;102857.00;;;;5054933;28;20052;-69
2022/03/27 09:14:49;;;;;;;7.50;5.60;;;17.60;44.60;16.70;102858.00;;;;5046992;28;20044;-70
2022/03/27 09:17:54;;;;;;;7.95;5.32;;;17.50;45.30;16.80;102859.00;;;;5056778;28;20044;-69
2022/03/27 09:20:53;;;;;;;6.05;4.78;;;17.60;44.50;16.80;102847.00;;;;5059625;28;20127;-69
2022/03/27 09:23:39;;;;;;;;;;;17.60;44.60;16.80;102848.00;;;;5078013;28;20068;-70
2022/03/27 09:26:26;;;;;;;7.20;4.97;;;17.60;44.70;16.80;102839.00;;;;5060141;28;20372;-69
2022/03/27 09:29:12;;;;;;;6.90;5.07;;;17.70;44.50;16.80;102843.00;;;;5051872;28;20045;-70
2022/03/27 09:31:58;;;;;;;5.93;4.93;;;17.70;44.50;16.90;102840.00;;;;5049727;28;20037;-70
2022/03/27 09:35:10;;;;;;;5.85;4.80;;;17.80;44.60;16.90;102843.00;;;;5052159;28;20044;-70
2022/03/27 09:37:56;;;;;;;6.38;4.75;;;17.70;44.50;16.90;102842.00;;;;5037665;28;20032;-70
2022/03/27 09:40:42;;;;;;;6.25;4.88;;;17.80;44.50;17.00;102844.00;;;;5051013;28;20033;-70
2022/03/27 09:43:28;;;;;;;5.75;4.25;;;17.80;44.50;17.00;102834.00;;;;5061331;28;20111;-70
2022/03/27 09:46:14;;;;;;;6.45;4.57;;;17.80;44.60;17.00;102839.00;;;;5052915;28;20045;-70
2022/03/27 09:49:00;;;;;;;5.85;4.55;;;17.90;44.70;17.00;102839.00;;;;5039594;28;20363;-70
2022/03/27 09:52:00;;;;;;;6.57;4.80;;;17.90;44.60;17.00;102838.00;;;;5067581;28;20043;-70
2022/03/27 09:54:53;;;;;;;8.23;4.88;;;17.90;44.50;17.00;102837.00;;;;5039266;28;20410;-70
2022/03/27 09:57:42;;;;;;;10.77;4.65;;;17.90;44.40;17.00;102835.00;;;;5059699;28;20040;-70
2022/03/27 10:00:28;;;;;;;8.40;4.65;;;17.90;44.50;17.00;102839.00;;;;5035476;28;20045;-69
2022/03/27 10:03:14;;;;;;;7.07;4.78;;;18.00;44.60;17.10;102830.00;;;;5056529;28;20119;-70
2022/03/27 10:06:02;;;;;;;7.97;4.30;;;18.00;44.50;17.10;102833.00;;;;5059663;28;20083;-77
2022/03/27 10:08:48;;;;;;;8.85;4.80;;;18.00;44.50;17.10;102824.00;;;;5051004;28;20056;-71
2022/03/27 10:11:35;;;;;;;7.30;4.63;;;17.90;44.40;17.10;102818.00;;;;5060169;28;20040;-70
2022/03/27 10:14:21;;;;;;;7.00;4.20;;;18.00;44.50;17.10;102815.00;;;;5044623;28;20048;-71
2022/03/27 10:17:09;;;;;;;6.00;4.28;;;18.10;44.60;17.10;102816.00;;;;5047868;28;20025;-70
2022/03/27 10:20:16;;;;;;;5.97;3.80;;;17.90;44.40;17.10;102817.00;;;;5043215;28;20510;-72
2022/03/27 10:23:23;;;;;;;8.18;4.80;;;18.10;45.20;17.10;102812.00;;;;5050390;28;20051;-71
2022/03/27 10:26:12;;;;;;;9.07;5.03;;;18.00;44.40;17.10;102817.00;;;;5031352;28;20041;-69
2022/03/27 10:29:00;;;;;;;10.77;5.82;;;18.10;45.10;17.10;102811.00;;;;5049459;28;20025;-72
2022/03/27 10:31:46;;;;;;;15.43;7.35;;;18.10;44.30;17.10;102804.00;;;;5045058;28;20045;-63
2022/03/27 10:34:32;;;;;;;11.55;5.72;;;18.10;44.20;17.10;102805.00;;;;5030764;28;20127;-64
2022/03/27 10:37:48;;;;;;;28.88;7.82;;;18.10;44.20;17.00;102787.00;;;;5049044;28;20052;-63
2022/03/27 10:41:06;;;;;;;22.77;5.97;;;18.00;44.30;17.00;102786.00;;;;5040517;28;20044;-64
2022/03/27 10:43:59;;;;;;;37.65;7.75;;;18.00;44.60;17.00;102785.00;;;;5040664;28;20048;-78
2022/03/27 10:47:18;;;;;;;23.52;6.18;;;18.10;44.40;17.00;102785.00;;;;5071026;28;20152;-71
2022/03/27 10:50:08;;;;;;;18.13;6.93;;;18.00;44.20;17.00;102773.00;;;;5047463;28;20051;-70
2022/03/27 10:52:54;;;;;;;20.23;6.47;;;18.00;43.80;17.00;102773.00;;;;5056854;28;20402;-70
2022/03/27 10:55:44;;;;;;;17.67;5.65;;;18.00;44.10;17.00;102762.00;;;;5065595;28;20036;-70
2022/03/27 10:58:31;;;;;;;15.40;5.10;;;18.00;44.30;17.00;102770.00;;;;5049513;28;20043;-70
2022/03/27 11:01:23;;;;;;;13.57;4.67;;;18.00;44.40;17.00;102762.00;;;;5051503;28;20405;-70
2022/03/27 11:04:21;;;;;;;20.23;5.93;;;18.00;44.50;17.00;102766.00;;;;5065989;28;20118;-70
2022/03/27 11:07:16;;;;;;;18.60;6.20;;;18.00;44.60;17.00;102760.00;;;;5051049;28;20308;-71
2022/03/27 11:10:02;;;;;;;17.10;5.05;;;18.00;44.40;17.10;102760.00;;;;5056997;28;20300;-71
2022/03/27 11:12:48;;;;;;;13.70;5.40;;;18.10;44.50;17.10;102762.00;;;;5030998;28;20037;-71
2022/03/27 11:16:03;;;;;;;15.20;5.20;;;18.10;44.50;17.10;102755.00;;;;5066410;28;20078;-71
2022/03/27 11:18:53;;;;;;;16.48;5.47;;;18.10;44.40;17.10;102754.00;;;;5048846;28;20031;-64
2022/03/27 11:21:45;;;;;;;15.05;5.88;;;18.10;44.30;17.20;102746.00;;;;5027907;28;20067;-63
2022/03/27 11:24:31;;;;;;;13.27;5.15;;;18.10;45.00;17.20;102747.00;;;;5062913;28;20037;-64
2022/03/27 11:27:54;;;;;;;9.38;4.97;;;18.20;44.30;17.20;102738.00;;;;5061690;28;20082;-63
2022/03/27 11:30:49;;;;;;;11.70;4.75;;;18.20;44.40;17.20;102730.00;;;;5060169;28;20033;-64
2022/03/27 11:33:37;;;;;;;12.25;4.55;;;18.20;44.10;17.30;102734.00;;;;5061719;28;20040;-64
2022/03/27 11:36:24;;;;;;;8.05;4.43;;;18.20;44.20;17.30;102728.00;;;;5049645;28;20048;-63
2022/03/27 11:39:12;;;;;;;11.88;4.78;;;18.30;44.20;17.30;102721.00;;;;5065108;28;20048;-64
2022/03/27 11:42:25;;;;;;;12.35;4.55;;;18.30;44.20;17.30;102722.00;;;;5056744;28;20037;-64
2022/03/27 11:45:17;;;;;;;11.23;3.72;;;18.30;44.10;17.30;102721.00;;;;5054920;28;20045;-63
2022/03/27 11:48:03;;;;;;;9.35;4.15;;;18.40;44.20;17.30;102719.00;;;;5062517;28;20048;-64
2022/03/27 11:50:49;;;;;;;9.50;4.05;;;18.40;44.10;17.40;102713.00;;;;5032516;28;20211;-63
2022/03/27 11:53:35;;;;;;;8.13;3.90;;;18.40;44.10;17.40;102714.00;;;;5060159;28;20462;-63
2022/03/27 11:56:23;;;;;;;7.43;3.67;;;18.40;44.10;17.40;102716.00;;;;5059559;28;20478;-64
2022/03/27 11:59:10;;;;;;;6.05;4.25;;;18.50;44.10;17.40;102713.00;;;;5043561;28;20045;-63
2022/03/27 12:01:57;;;;;;;9.13;4.28;;;18.50;44.00;17.40;102701.00;;;;5046244;28;20055;-63
2022/03/27 12:04:57;;;;;;;7.28;3.75;;;18.50;44.00;17.40;102707.00;;;;5061631;28;20055;-64
2022/03/27 12:07:55;;;;;;;8.07;4.05;;;18.50;43.90;17.40;102706.00;;;;5043962;28;20045;-63
2022/03/27 12:10:47;;;;;;;4.60;3.72;;;18.50;44.00;17.50;102695.00;;;;5026970;28;20378;-64
2022/03/27 12:13:40;;;;;;;6.78;3.33;;;18.50;44.00;17.50;102689.00;;;;5058854;28;20044;-64
2022/03/27 12:16:27;;;;;;;5.65;3.22;;;18.50;43.90;17.50;102691.00;;;;5040949;28;20055;-65
2022/03/27 12:19:13;;;;;;;9.80;3.22;;;18.60;43.90;17.50;102688.00;;;;5057639;28;20052;-64
2022/03/27 12:21:59;;;;;;;7.22;3.60;;;18.60;43.90;17.50;102680.00;;;;5057512;28;20044;-65